This is the latest recevied weather packets stored in our database for station/object N7TUG-8. If no packets are shown the sender has not sent any weather packets the latest 1 day(s).
| Time | Temp. | Humidity | Pressure | Rain* | Wind** | Luminosity | Snow |
|---|---|---|---|---|---|---|---|
| 1778091691 | 13.33° C | 84% | 1020.1 hPa | 0 mm | 2.24 m/s, 157° | - | - |
| 1778089287 | 13.33° C | 88% | 1019.7 hPa | 0 mm | 3.13 m/s, 128° | - | - |
| 1778088502 | 12.78° C | 90% | 1019.7 hPa | 0 mm | 2.68 m/s, 142° | - | - |
| 1778083471 | 12.78° C | 92% | 1019 hPa | 0 mm | 3.13 m/s, 137° | - | - |
| 1778083082 | 12.22° C | 93% | 1019.1 hPa | 0 mm | 3.13 m/s, 129° | - | - |
| 1778080722 | 12.22° C | 93% | 1019.5 hPa | 0 mm | 1.79 m/s, 152° | - | - |
| 1778080002 | 12.22° C | 94% | 1019.4 hPa | 0 mm | 1.79 m/s, 164° | - | - |
| 1778079202 | 11.67° C | 95% | 1019 hPa | 0 mm | 2.68 m/s, 148° | - | - |
| 1778078477 | 11.67° C | 94% | 1019.2 hPa | 0 mm | 2.68 m/s, 133° | - | - |
| 1778077622 | 12.22° C | 92% | 1019.3 hPa | 0 mm | 1.34 m/s, 142° | - | - |
| 1778075743 | 12.22° C | 90% | 1019 hPa | 0 mm | 2.24 m/s, 151° | - | - |
| 1778075307 | 12.78° C | 88% | 1019.1 hPa | 0 mm | 0.89 m/s, 174° | - | - |
| 1778074407 | 12.78° C | 87% | 1018.8 hPa | 0 mm | 1.34 m/s, 170° | - | - |
| 1778073607 | 12.78° C | 88% | 1018.7 hPa | 0 mm | 1.34 m/s, 159° | - | - |
| 1778072882 | 12.78° C | 87% | 1018.8 hPa | 0 mm | 1.79 m/s, 162° | - | - |
| 1778071271 | 12.78° C | 87% | 1018.5 hPa | 0 mm | 2.24 m/s, 168° | - | - |
| 1778070836 | 12.78° C | 87% | 1018.4 hPa | 0 mm | 2.24 m/s, 158° | - | - |
| 1778070442 | 12.78° C | 87% | 1018.2 hPa | 0 mm | 1.79 m/s, 158° | - | - |
| 1778068867 | 12.78° C | 86% | 1018.1 hPa | 0 mm | 2.24 m/s, 145° | - | - |
| 1778067347 | 12.78° C | 87% | 1017.9 hPa | 0 mm | 1.79 m/s, 126° | - | - |
| 1778064762 | 12.78° C | 87% | 1017.7 hPa | 0 mm | 1.79 m/s, 145° | - | - |
| 1778061531 | 12.78° C | 86% | 1017.5 hPa | 0 mm | 1.79 m/s, 155° | - | - |
| 1778060516 | 13.33° C | 85% | 1017.2 hPa | 0 mm | 1.34 m/s, 133° | - | - |
| 1778059942 | 12.78° C | 86% | 1017.1 hPa | 0 mm | 1.79 m/s, 165° | - | - |
| 1778056281 | 13.33° C | 86% | 1016.7 hPa | 0 mm | 2.68 m/s, 130° | - | - |
* Rain latest hour (hover to see other rain measurements)
** Current wind speed in m/s (hover to see current wind gust speed)